createdAt,value
2022-12-18T00:02:07.403Z,-2.30
2022-12-18T00:04:35.350Z,-2.40
2022-12-18T00:07:03.892Z,-2.40
2022-12-18T00:09:39.512Z,-2.40
2022-12-18T00:14:46.407Z,-2.40
2022-12-18T00:17:18.053Z,-2.40
2022-12-18T00:19:46.016Z,-2.40
2022-12-18T00:22:15.133Z,-2.40
2022-12-18T00:24:43.102Z,-2.40
2022-12-18T00:27:10.970Z,-2.40
2022-12-18T00:29:38.822Z,-2.40
2022-12-18T00:32:06.798Z,-2.50
2022-12-18T00:34:36.205Z,-2.70
2022-12-18T00:37:04.177Z,-2.60
2022-12-18T00:39:32.057Z,-2.60
2022-12-18T00:42:17.359Z,-2.40
2022-12-18T00:44:45.246Z,-2.40
2022-12-18T00:47:16.093Z,-2.40
2022-12-18T00:49:45.342Z,-2.30
2022-12-18T00:52:13.249Z,-2.40
2022-12-18T00:54:41.155Z,-2.40
2022-12-18T00:57:09.086Z,-2.40
2022-12-18T00:59:36.985Z,-2.50
2022-12-18T01:02:05.061Z,-2.50
2022-12-18T01:04:34.069Z,-2.50
2022-12-18T01:07:03.334Z,-2.40
2022-12-18T01:09:31.221Z,-2.40
2022-12-18T01:11:59.136Z,-2.50
2022-12-18T01:14:27.168Z,-2.50
2022-12-18T01:16:55.082Z,-2.50
2022-12-18T01:19:23.010Z,-2.50
2022-12-18T01:21:50.896Z,-2.40
2022-12-18T01:24:20.204Z,-2.40
2022-12-18T01:26:48.091Z,-2.40
2022-12-18T01:29:15.963Z,-2.40
2022-12-18T01:31:43.902Z,-2.40
2022-12-18T01:34:12.270Z,-2.40
2022-12-18T01:36:42.225Z,-2.30
2022-12-18T01:39:12.957Z,-2.40
2022-12-18T01:41:59.841Z,-2.40
2022-12-18T01:45:00.532Z,-2.50
2022-12-18T01:47:40.800Z,-2.50
2022-12-18T01:50:13.206Z,-2.50
2022-12-18T01:52:42.890Z,-2.60
2022-12-18T01:55:12.384Z,-2.60
2022-12-18T01:57:43.240Z,-2.50
2022-12-18T02:00:15.224Z,-2.50
2022-12-18T02:02:44.898Z,-2.60
2022-12-18T02:05:16.380Z,-2.60
2022-12-18T02:07:55.140Z,-2.50
2022-12-18T02:10:29.872Z,-2.60
2022-12-18T02:13:05.870Z,-2.60
2022-12-18T02:15:40.724Z,-2.60
2022-12-18T02:18:13.582Z,-2.70
2022-12-18T02:20:46.730Z,-2.80
2022-12-18T02:23:26.268Z,-2.90
2022-12-18T02:26:21.414Z,-2.90
2022-12-18T02:28:55.083Z,-3.00
2022-12-18T02:31:27.692Z,-3.00
2022-12-18T02:34:00.999Z,-2.90
2022-12-18T02:36:33.139Z,-3.00
2022-12-18T02:39:04.990Z,-3.10
2022-12-18T02:41:40.294Z,-3.10
2022-12-18T02:44:20.084Z,-3.00
2022-12-18T02:46:59.955Z,-2.90
2022-12-18T02:49:40.070Z,-3.10
2022-12-18T02:52:30.914Z,-3.20
2022-12-18T02:55:08.008Z,-3.10
2022-12-18T02:57:44.615Z,-3.20
2022-12-18T03:00:16.581Z,-3.20
2022-12-18T03:02:50.973Z,-3.10
2022-12-18T03:05:22.188Z,-3.00
2022-12-18T03:07:56.271Z,-3.10
2022-12-18T03:10:28.464Z,-3.20
2022-12-18T03:13:03.969Z,-3.00
2022-12-18T03:18:31.735Z,-3.20
2022-12-18T03:21:03.953Z,-3.40
2022-12-18T03:23:37.023Z,-3.50
2022-12-18T03:26:09.562Z,-3.40
2022-12-18T03:28:42.321Z,-3.50
2022-12-18T03:31:13.369Z,-3.50
2022-12-18T03:33:44.378Z,-3.50
2022-12-18T03:36:12.435Z,-3.50
2022-12-18T03:38:40.533Z,-3.50
2022-12-18T03:41:17.987Z,-3.50
2022-12-18T03:43:53.288Z,-3.50
2022-12-18T03:46:30.278Z,-3.50
2022-12-18T03:49:08.324Z,-3.60
2022-12-18T03:51:42.812Z,-3.50
2022-12-18T03:54:12.256Z,-3.50
2022-12-18T03:56:44.111Z,-3.60
2022-12-18T03:59:14.939Z,-3.50
2022-12-18T04:01:47.838Z,-3.50
2022-12-18T04:04:17.471Z,-3.40
2022-12-18T04:06:47.377Z,-3.40
2022-12-18T04:09:15.969Z,-3.50
2022-12-18T04:11:45.427Z,-3.50
2022-12-18T04:14:17.998Z,-3.60
2022-12-18T04:16:46.452Z,-3.50
2022-12-18T04:19:14.521Z,-3.60
2022-12-18T04:21:42.553Z,-3.50
2022-12-18T04:24:10.524Z,-3.50
2022-12-18T04:26:39.324Z,-3.50
2022-12-18T04:29:07.330Z,-3.50
2022-12-18T04:31:36.749Z,-3.40
2022-12-18T04:34:05.006Z,-3.40
2022-12-18T04:36:33.005Z,-3.30
2022-12-18T04:39:00.952Z,-3.30
2022-12-18T04:41:28.881Z,-3.30
2022-12-18T04:43:56.841Z,-3.30
2022-12-18T04:46:24.868Z,-3.30
2022-12-18T04:48:54.205Z,-3.40
2022-12-18T04:51:26.303Z,-3.60
2022-12-18T04:53:55.088Z,-3.60
2022-12-18T04:56:23.226Z,-3.50
2022-12-18T04:58:51.292Z,-3.50
2022-12-18T05:01:20.402Z,-3.50
2022-12-18T05:03:48.505Z,-3.60
2022-12-18T05:06:17.851Z,-3.50
2022-12-18T05:08:45.734Z,-3.50
2022-12-18T05:11:16.892Z,-3.60
2022-12-18T05:13:45.579Z,-3.60
2022-12-18T05:16:14.964Z,-3.60
2022-12-18T05:18:43.456Z,-3.60
2022-12-18T05:21:11.445Z,-3.60
2022-12-18T05:23:41.149Z,-3.60
2022-12-18T05:26:09.905Z,-3.70
2022-12-18T05:28:38.555Z,-3.60
2022-12-18T05:31:07.128Z,-3.60
2022-12-18T05:33:36.758Z,-3.70
2022-12-18T05:36:06.802Z,-3.70
2022-12-18T05:38:36.442Z,-3.80
2022-12-18T05:41:06.742Z,-3.80
2022-12-18T05:43:37.945Z,-3.60
2022-12-18T05:46:07.503Z,-3.60
2022-12-18T05:48:35.771Z,-3.70
2022-12-18T05:51:08.460Z,-3.70
2022-12-18T05:53:38.147Z,-3.70
2022-12-18T05:56:10.460Z,-3.70
2022-12-18T05:58:38.685Z,-3.80
2022-12-18T06:01:12.013Z,-3.80
2022-12-18T06:03:40.555Z,-3.70
2022-12-18T06:06:15.557Z,-3.60
2022-12-18T06:08:46.523Z,-3.60
2022-12-18T06:11:20.259Z,-3.60
2022-12-18T06:13:48.450Z,-3.60
2022-12-18T06:16:16.460Z,-3.60
2022-12-18T06:18:44.431Z,-3.60
2022-12-18T06:21:12.709Z,-3.60
2022-12-18T06:23:41.033Z,-3.40
2022-12-18T06:26:10.025Z,-3.40
2022-12-18T06:28:39.919Z,-3.30
2022-12-18T06:31:08.904Z,-3.30
2022-12-18T06:33:40.425Z,-3.30
2022-12-18T06:36:11.477Z,-3.40
2022-12-18T06:38:44.317Z,-3.50
2022-12-18T06:41:14.738Z,-3.40
2022-12-18T06:43:44.822Z,-3.50
2022-12-18T06:46:13.592Z,-3.40
2022-12-18T06:48:43.667Z,-3.30
2022-12-18T06:51:11.473Z,-3.30
2022-12-18T06:53:40.122Z,-3.20
2022-12-18T06:56:10.889Z,-3.30
2022-12-18T06:58:39.473Z,-3.50
2022-12-18T07:01:10.894Z,-3.50
2022-12-18T07:03:39.588Z,-3.60
2022-12-18T07:06:08.370Z,-3.60
2022-12-18T07:08:36.224Z,-3.50
2022-12-18T07:11:06.734Z,-3.60
2022-12-18T07:13:34.587Z,-3.40
2022-12-18T07:16:18.350Z,-3.50
2022-12-18T07:18:49.377Z,-3.50
2022-12-18T07:21:18.880Z,-3.20
2022-12-18T07:23:49.070Z,-3.30
2022-12-18T07:26:20.661Z,-3.30
2022-12-18T07:28:49.047Z,-3.40
2022-12-18T07:31:22.320Z,-3.30
2022-12-18T07:33:51.599Z,-3.40
2022-12-18T07:36:20.164Z,-3.30
2022-12-18T07:41:26.272Z,-3.40
2022-12-18T07:44:12.258Z,-3.30
2022-12-18T07:46:41.779Z,-3.20
2022-12-18T07:49:09.788Z,-3.20
2022-12-18T07:51:37.872Z,-3.30
2022-12-18T07:54:05.903Z,-3.30
2022-12-18T07:56:34.285Z,-3.40
2022-12-18T07:59:05.332Z,-3.30
2022-12-18T08:02:09.283Z,-3.30
2022-12-18T08:04:38.926Z,-3.30
2022-12-18T08:07:06.902Z,-3.20
2022-12-18T08:09:34.832Z,-3.10
2022-12-18T08:12:02.837Z,-2.80
2022-12-18T08:14:30.632Z,-2.70
2022-12-18T08:16:59.042Z,-2.60
2022-12-18T08:19:27.405Z,-2.50
2022-12-18T08:21:56.884Z,-2.50
2022-12-18T08:24:25.135Z,-2.50
2022-12-18T08:27:20.848Z,-2.40
2022-12-18T08:29:41.077Z,-2.40
2022-12-18T08:32:09.088Z,-2.40
2022-12-18T08:34:37.256Z,-2.40
2022-12-18T08:37:06.562Z,-2.50
2022-12-18T08:39:35.562Z,-2.50
2022-12-18T08:42:21.273Z,-2.40
2022-12-18T08:44:49.238Z,-2.40
2022-12-18T08:47:17.133Z,-2.20
2022-12-18T08:49:44.999Z,-2.30
2022-12-18T08:52:14.264Z,-2.30
2022-12-18T08:54:42.103Z,-2.20
2022-12-18T08:57:09.979Z,-2.20
2022-12-18T09:04:57.791Z,-2.20
2022-12-18T09:07:27.389Z,-1.90
2022-12-18T09:09:55.174Z,-1.90
2022-12-18T09:12:23.085Z,-2.00
2022-12-18T09:14:50.884Z,-1.90
2022-12-18T09:17:18.748Z,-1.80
2022-12-18T09:19:46.572Z,-1.80
2022-12-18T09:22:14.392Z,-1.60
2022-12-18T09:24:43.534Z,-1.60
2022-12-18T09:27:11.377Z,-1.60
2022-12-18T09:29:39.277Z,-1.40
2022-12-18T09:32:07.490Z,-1.30
2022-12-18T09:34:35.386Z,-1.40
2022-12-18T09:37:03.249Z,-1.30
2022-12-18T09:39:31.157Z,-1.30
2022-12-18T09:42:00.850Z,-1.20
2022-12-18T09:44:31.838Z,-1.10
2022-12-18T09:47:08.933Z,-1.10
2022-12-18T09:49:39.944Z,-1.10
2022-12-18T09:52:14.582Z,-1.00
2022-12-18T09:54:44.532Z,-1.10
2022-12-18T09:57:16.945Z,-0.80
2022-12-18T09:59:50.086Z,-0.80
2022-12-18T10:02:22.319Z,-0.80
2022-12-18T10:05:04.167Z,-0.90
2022-12-18T10:07:42.684Z,-0.80
2022-12-18T10:10:21.555Z,-0.70
2022-12-18T10:13:04.258Z,-0.70
2022-12-18T10:15:39.685Z,-0.70
2022-12-18T10:18:21.847Z,-0.50
2022-12-18T10:20:53.466Z,-0.40
2022-12-18T10:23:25.783Z,-0.40
2022-12-18T10:25:58.320Z,-0.40
2022-12-18T10:28:32.819Z,-0.40
2022-12-18T10:31:00.996Z,-0.40
2022-12-18T10:33:32.657Z,-0.30
2022-12-18T10:36:01.106Z,-0.20
2022-12-18T10:38:32.095Z,-0.30
2022-12-18T10:41:02.086Z,-0.20
2022-12-18T10:47:21.258Z,-0.10
2022-12-18T10:49:52.703Z,0.20
2022-12-18T10:52:23.687Z,0.00
2022-12-18T10:54:54.019Z,0.00
2022-12-18T10:57:35.144Z,0.00
2022-12-18T11:00:23.458Z,-0.10
2022-12-18T11:02:53.608Z,-0.10
2022-12-18T11:05:29.334Z,0.00
2022-12-18T11:07:58.196Z,0.10
2022-12-18T11:10:31.383Z,0.20
2022-12-18T11:13:17.462Z,0.30
2022-12-18T11:15:46.249Z,0.40
2022-12-18T11:18:24.150Z,0.50
2022-12-18T11:20:58.290Z,0.60
2022-12-18T11:23:27.601Z,0.60
2022-12-18T11:25:58.973Z,0.60
2022-12-18T11:28:37.630Z,0.60
2022-12-18T11:31:19.103Z,0.60
2022-12-18T11:34:26.908Z,0.70
2022-12-18T11:36:46.326Z,0.80
2022-12-18T11:39:21.085Z,0.70
2022-12-18T11:42:13.987Z,0.60
2022-12-18T11:44:50.469Z,0.80
2022-12-18T11:47:27.417Z,1.00
2022-12-18T11:50:14.792Z,1.20
2022-12-18T11:52:43.559Z,1.10
2022-12-18T11:55:15.864Z,1.00
2022-12-18T11:57:52.233Z,1.00
2022-12-18T12:00:21.746Z,0.90
2022-12-18T12:03:16.390Z,0.90
2022-12-18T12:05:59.727Z,1.10
2022-12-18T12:08:40.445Z,1.10
2022-12-18T12:11:15.037Z,1.10
2022-12-18T12:13:52.039Z,1.20
2022-12-18T12:16:29.376Z,1.10
2022-12-18T12:19:10.550Z,1.00
2022-12-18T12:21:43.113Z,1.00
2022-12-18T12:24:24.937Z,0.90
2022-12-18T12:27:04.718Z,1.00
2022-12-18T12:29:43.902Z,1.10
2022-12-18T12:32:22.602Z,1.00
2022-12-18T12:35:06.048Z,1.10
2022-12-18T12:37:50.924Z,1.00
2022-12-18T12:40:50.860Z,1.20
2022-12-18T12:43:22.702Z,1.20
2022-12-18T12:45:55.705Z,1.30
2022-12-18T12:48:35.070Z,1.20
2022-12-18T12:51:06.427Z,1.20
2022-12-18T12:53:40.166Z,1.10
2022-12-18T12:56:11.911Z,1.20
2022-12-18T12:58:49.071Z,1.60
2022-12-18T13:01:27.324Z,1.40
2022-12-18T13:04:03.066Z,1.40
2022-12-18T13:06:44.374Z,1.40
2022-12-18T13:09:14.064Z,1.40
2022-12-18T13:12:01.495Z,1.40
2022-12-18T13:14:32.340Z,1.40
2022-12-18T13:17:30.215Z,1.40
2022-12-18T13:20:13.134Z,1.30
2022-12-18T13:22:45.370Z,1.20
2022-12-18T13:25:41.449Z,1.10
2022-12-18T13:28:14.712Z,1.10
2022-12-18T13:30:57.325Z,0.90
2022-12-18T13:39:35.209Z,0.70
2022-12-18T13:43:12.059Z,0.70
2022-12-18T13:45:48.279Z,0.80
2022-12-18T13:48:22.589Z,0.80
2022-12-18T13:50:54.598Z,0.80
2022-12-18T13:53:26.250Z,0.70
2022-12-18T13:55:55.586Z,0.70
2022-12-18T13:58:24.979Z,0.70
2022-12-18T14:00:53.026Z,0.60
2022-12-18T14:03:24.616Z,0.60
2022-12-18T14:05:59.009Z,0.60
2022-12-18T14:08:35.976Z,0.60
2022-12-18T14:11:06.385Z,0.60
2022-12-18T14:13:39.495Z,0.50
2022-12-18T14:16:09.445Z,0.40
2022-12-18T14:18:47.075Z,0.30
2022-12-18T14:21:22.830Z,0.40
2022-12-18T14:23:51.231Z,0.40
2022-12-18T14:26:28.272Z,0.40
2022-12-18T14:28:57.833Z,0.40
2022-12-18T14:31:29.150Z,0.30
2022-12-18T14:33:57.665Z,0.20
2022-12-18T14:36:27.495Z,0.00
2022-12-18T14:38:57.205Z,-0.10
2022-12-18T14:41:26.254Z,-0.10
2022-12-18T14:43:56.467Z,-0.20
2022-12-18T14:46:36.411Z,-0.20
2022-12-18T14:49:06.490Z,-0.20
2022-12-18T14:51:36.188Z,-0.20
2022-12-18T14:54:08.950Z,-0.20
2022-12-18T14:56:39.019Z,-0.20
2022-12-18T14:59:16.934Z,-0.20
2022-12-18T15:01:54.053Z,-0.30
2022-12-18T15:04:28.655Z,-0.60
2022-12-18T15:07:14.789Z,-0.60
2022-12-18T15:09:45.337Z,-0.70
2022-12-18T15:12:28.014Z,-0.70
2022-12-18T15:14:56.005Z,-0.70
2022-12-18T15:17:26.723Z,-0.60
2022-12-18T15:20:00.863Z,-0.60
2022-12-18T15:22:30.132Z,-0.60
2022-12-18T15:25:00.063Z,-0.90
2022-12-18T15:27:31.373Z,-0.80
2022-12-18T15:30:19.988Z,-0.80
2022-12-18T15:32:50.214Z,-0.80
2022-12-18T15:35:20.911Z,-0.80
2022-12-18T15:37:49.036Z,-0.70
2022-12-18T15:40:18.382Z,-0.60
2022-12-18T15:43:05.758Z,-0.80
2022-12-18T15:45:33.810Z,-0.70
2022-12-18T15:48:03.029Z,-0.80
2022-12-18T15:50:30.944Z,-0.80
2022-12-18T15:52:58.945Z,-0.80
2022-12-18T15:55:44.344Z,-0.70
2022-12-18T15:58:13.101Z,-0.70
2022-12-18T16:00:43.091Z,-0.80
2022-12-18T16:03:13.120Z,-0.70
2022-12-18T16:05:41.049Z,-0.70
2022-12-18T16:08:09.071Z,-0.70
2022-12-18T16:10:40.091Z,-0.70
2022-12-18T16:13:08.445Z,-0.70
2022-12-18T16:15:36.447Z,-0.70
2022-12-18T16:18:04.611Z,-0.70
2022-12-18T16:20:33.819Z,-0.80
2022-12-18T16:23:02.359Z,-0.80
2022-12-18T16:25:30.973Z,-0.70
2022-12-18T16:27:58.985Z,-0.70
2022-12-18T16:30:32.358Z,-0.60
2022-12-18T16:33:05.377Z,-0.60
2022-12-18T16:35:34.897Z,-0.70
2022-12-18T16:38:02.746Z,-0.70
2022-12-18T16:40:54.523Z,-0.60
2022-12-18T16:43:22.557Z,-0.70
2022-12-18T16:45:50.922Z,-0.80
2022-12-18T16:48:19.811Z,-0.80
2022-12-18T16:50:49.093Z,-0.90
2022-12-18T16:53:17.440Z,-0.90
2022-12-18T16:55:45.305Z,-0.90
2022-12-18T16:58:13.173Z,-0.80
2022-12-18T17:00:41.595Z,-0.70
2022-12-18T17:03:09.634Z,-0.80
2022-12-18T17:05:37.764Z,-1.00
2022-12-18T17:08:07.712Z,-0.90
2022-12-18T17:10:36.892Z,-1.00
2022-12-18T17:13:04.788Z,-0.90
2022-12-18T17:15:36.682Z,-0.90
2022-12-18T17:18:05.233Z,-0.90
2022-12-18T17:20:33.122Z,-0.80
2022-12-18T17:23:00.975Z,-0.90
2022-12-18T17:25:31.190Z,-0.90
2022-12-18T17:27:59.102Z,-0.90
2022-12-18T17:30:27.020Z,-0.90
2022-12-18T17:32:54.945Z,-1.00
2022-12-18T17:35:22.774Z,-0.80
2022-12-18T17:37:50.627Z,-0.90
2022-12-18T17:40:18.614Z,-0.90
2022-12-18T17:42:48.001Z,-0.90
2022-12-18T17:45:15.999Z,-0.90
2022-12-18T17:47:43.901Z,-0.90
2022-12-18T17:50:11.797Z,-0.90
2022-12-18T17:52:39.700Z,-0.90
2022-12-18T17:55:08.696Z,-0.90
2022-12-18T17:57:36.630Z,-1.00
2022-12-18T18:00:07.096Z,-0.90
2022-12-18T18:02:35.112Z,-0.90
2022-12-18T18:05:03.786Z,-0.90
2022-12-18T18:07:31.856Z,-1.00
2022-12-18T18:09:59.862Z,-1.00
2022-12-18T18:12:45.221Z,-0.90
2022-12-18T18:15:14.443Z,-0.80
2022-12-18T18:17:43.208Z,-0.90
2022-12-18T18:20:12.050Z,-0.70
2022-12-18T18:22:39.883Z,-0.80
2022-12-18T18:25:09.213Z,-0.70
2022-12-18T18:27:38.803Z,-0.60
2022-12-18T18:30:08.020Z,-0.70
2022-12-18T18:32:39.667Z,-0.90
2022-12-18T18:35:15.663Z,-0.80
2022-12-18T18:37:56.812Z,-0.90
2022-12-18T18:40:25.271Z,-0.90
2022-12-18T18:42:56.759Z,-0.80
2022-12-18T18:45:24.812Z,-0.90
2022-12-18T18:47:54.212Z,-0.80
2022-12-18T18:50:23.153Z,-1.00
2022-12-18T18:52:51.077Z,-0.90
2022-12-18T18:55:25.547Z,-0.80
2022-12-18T18:57:53.968Z,-0.80
2022-12-18T19:00:21.911Z,-0.80
2022-12-18T19:02:49.956Z,-0.80
2022-12-18T19:05:19.202Z,-0.60
2022-12-18T19:07:47.237Z,-0.70
2022-12-18T19:10:15.116Z,-0.70
2022-12-18T19:13:00.406Z,-0.70
2022-12-18T19:15:28.176Z,-0.70
2022-12-18T19:17:56.055Z,-0.90
2022-12-18T19:20:25.230Z,-0.80
2022-12-18T19:22:55.528Z,-0.90
2022-12-18T19:25:40.607Z,-0.90
2022-12-18T19:28:21.638Z,-0.80
2022-12-18T19:30:58.726Z,-0.80
2022-12-18T19:33:43.124Z,-0.90
2022-12-18T19:36:15.553Z,-0.80
2022-12-18T19:38:45.321Z,-0.90
2022-12-18T19:41:14.819Z,-0.80
2022-12-18T19:43:42.808Z,-0.80
2022-12-18T19:46:14.068Z,-0.80
2022-12-18T19:48:43.261Z,-0.90
2022-12-18T19:51:15.212Z,-0.80
2022-12-18T19:53:43.125Z,-0.70
2022-12-18T19:56:12.792Z,-0.70
2022-12-18T19:58:41.144Z,-1.00
2022-12-18T20:01:09.180Z,-0.80
2022-12-18T20:03:38.754Z,-0.70
2022-12-18T20:06:11.427Z,-0.60
2022-12-18T20:08:41.171Z,-0.70
2022-12-18T20:11:09.176Z,-0.70
2022-12-18T20:13:37.560Z,-0.70
2022-12-18T20:16:05.992Z,-0.70
2022-12-18T20:18:33.890Z,-0.60
2022-12-18T20:21:02.097Z,-0.50
2022-12-18T20:23:32.823Z,-0.50
2022-12-18T20:26:03.714Z,-0.50
2022-12-18T20:28:33.807Z,-0.60
2022-12-18T20:31:02.925Z,-0.60
2022-12-18T20:33:30.806Z,-0.60
2022-12-18T20:36:03.407Z,-0.60
2022-12-18T20:38:32.016Z,-0.70
2022-12-18T20:41:02.295Z,-0.70
2022-12-18T20:43:31.580Z,-0.60
2022-12-18T20:46:03.528Z,-0.70
2022-12-18T20:48:32.619Z,-0.70
2022-12-18T20:51:03.834Z,-0.60
2022-12-18T20:53:32.618Z,-0.70
2022-12-18T20:56:01.526Z,-0.70
2022-12-18T20:58:30.766Z,-0.60
2022-12-18T21:01:05.134Z,-0.70
2022-12-18T21:03:33.108Z,-0.70
2022-12-18T21:06:01.018Z,-0.60
2022-12-18T21:08:28.935Z,-0.60
2022-12-18T21:10:57.147Z,-0.60
2022-12-18T21:13:24.040Z,-0.60
2022-12-18T21:15:55.660Z,-0.50
2022-12-18T21:18:23.451Z,-0.40
2022-12-18T21:20:51.341Z,-0.50
2022-12-18T21:23:19.327Z,-0.50
2022-12-18T21:25:49.451Z,-0.50
2022-12-18T21:28:23.790Z,-0.30
2022-12-18T21:30:51.682Z,-0.30
2022-12-18T21:33:20.853Z,-0.40
2022-12-18T21:35:48.747Z,-0.40
2022-12-18T21:38:16.641Z,-0.40
2022-12-18T21:40:44.464Z,-0.20
2022-12-18T21:43:29.742Z,-0.30
2022-12-18T21:45:57.579Z,-0.20
2022-12-18T21:48:28.265Z,-0.30
2022-12-18T21:50:56.102Z,-0.30
2022-12-18T21:53:23.902Z,-0.30
2022-12-18T21:55:58.766Z,-0.40
2022-12-18T21:58:26.817Z,-0.30
2022-12-18T22:00:54.877Z,-0.20
2022-12-18T22:03:22.911Z,-0.20
2022-12-18T22:06:00.775Z,-0.10
2022-12-18T22:08:40.940Z,-0.10
2022-12-18T22:11:13.572Z,-0.20
2022-12-18T22:13:41.446Z,-0.10
2022-12-18T22:16:09.395Z,-0.20
2022-12-18T22:18:37.173Z,-0.10
2022-12-18T22:21:07.253Z,-0.10
2022-12-18T22:23:35.501Z,-0.20
2022-12-18T22:26:03.308Z,-0.20
2022-12-18T22:28:52.505Z,-0.10
2022-12-18T22:31:20.371Z,0.00
2022-12-18T22:33:48.274Z,0.10
2022-12-18T22:36:17.557Z,0.10
2022-12-18T22:38:47.852Z,0.00
2022-12-18T22:41:17.796Z,0.00
2022-12-18T22:43:45.904Z,0.00
2022-12-18T22:46:16.517Z,0.10
2022-12-18T22:48:44.686Z,0.10
2022-12-18T22:51:18.140Z,0.00
2022-12-18T22:53:46.839Z,0.10
2022-12-18T22:56:21.071Z,0.10
2022-12-18T22:58:50.049Z,0.00
2022-12-18T23:01:21.601Z,0.10
2022-12-18T23:03:50.023Z,0.20
2022-12-18T23:06:19.885Z,0.10
2022-12-18T23:08:52.963Z,0.10
2022-12-18T23:11:23.652Z,0.00
2022-12-18T23:13:51.449Z,0.00
2022-12-18T23:16:23.222Z,0.00
2022-12-18T23:18:55.713Z,0.00
2022-12-18T23:21:25.243Z,0.10
2022-12-18T23:23:53.583Z,0.20
2022-12-18T23:26:23.379Z,0.20
2022-12-18T23:28:52.677Z,0.10
2022-12-18T23:31:23.427Z,0.10
2022-12-18T23:33:52.197Z,0.10
